createdAt,value
2018-09-06T00:00:45.454Z,20.45
2018-09-06T00:03:12.720Z,20.70
2018-09-06T00:05:39.992Z,19.60
2018-09-06T00:08:07.359Z,20.85
2018-09-06T00:10:34.635Z,18.73
2018-09-06T00:13:01.910Z,21.95
2018-09-06T00:15:29.220Z,20.85
2018-09-06T00:17:56.511Z,19.10
2018-09-06T00:20:23.789Z,21.02
2018-09-06T00:22:51.079Z,19.67
2018-09-06T00:25:18.385Z,20.25
2018-09-06T00:27:45.883Z,19.70
2018-09-06T00:30:13.218Z,19.62
2018-09-06T00:32:40.494Z,20.30
2018-09-06T00:35:07.758Z,20.25
2018-09-06T00:37:35.034Z,18.62
2018-09-06T00:40:02.318Z,19.52
2018-09-06T00:42:29.610Z,18.98
2018-09-06T00:44:56.871Z,19.00
2018-09-06T00:47:24.116Z,20.48
2018-09-06T00:49:51.390Z,21.15
2018-09-06T00:52:18.657Z,19.27
2018-09-06T00:54:46.012Z,19.42
2018-09-06T00:57:13.265Z,20.20
2018-09-06T00:59:40.513Z,20.60
2018-09-06T01:02:07.809Z,20.48
2018-09-06T01:04:35.149Z,20.37
2018-09-06T01:07:02.401Z,19.82
2018-09-06T01:09:29.676Z,20.97
2018-09-06T01:11:56.977Z,20.88
2018-09-06T01:14:24.281Z,21.33
2018-09-06T01:16:51.530Z,20.72
2018-09-06T01:19:18.856Z,21.33
2018-09-06T01:21:46.070Z,20.08
2018-09-06T01:24:13.349Z,20.65
2018-09-06T01:26:40.613Z,20.40
2018-09-06T01:29:07.909Z,20.05
2018-09-06T01:31:35.209Z,23.10
2018-09-06T01:34:02.461Z,20.60
2018-09-06T01:36:35.192Z,19.10
2018-09-06T01:39:02.466Z,21.25
2018-09-06T01:41:29.741Z,19.60
2018-09-06T01:43:56.985Z,20.70
2018-09-06T01:46:24.238Z,21.20
2018-09-06T01:48:51.501Z,19.98
2018-09-06T01:51:18.754Z,20.95
2018-09-06T01:53:46.081Z,21.35
2018-09-06T01:56:13.341Z,20.97
2018-09-06T01:58:40.584Z,20.45
2018-09-06T02:01:07.854Z,20.08
2018-09-06T02:03:35.137Z,21.05
2018-09-06T02:06:02.418Z,19.85
2018-09-06T02:08:29.697Z,19.95
2018-09-06T02:10:56.989Z,19.62
2018-09-06T02:13:24.288Z,20.02
2018-09-06T02:15:51.536Z,21.85
2018-09-06T02:18:18.798Z,20.90
2018-09-06T02:20:46.065Z,21.23
2018-09-06T02:23:13.309Z,20.08
2018-09-06T02:25:41.592Z,19.07
2018-09-06T02:28:08.892Z,21.02
2018-09-06T02:30:36.187Z,21.33
2018-09-06T02:33:03.429Z,20.43
2018-09-06T02:35:30.710Z,21.73
2018-09-06T02:37:58.006Z,20.43
2018-09-06T02:40:30.653Z,20.32
2018-09-06T02:42:57.926Z,22.10
2018-09-06T02:45:25.174Z,20.88
2018-09-06T02:47:55.692Z,21.33
2018-09-06T02:50:28.464Z,20.52
2018-09-06T02:52:56.097Z,20.72
2018-09-06T02:55:24.054Z,20.75
2018-09-06T02:57:51.362Z,22.10
2018-09-06T03:00:22.972Z,21.20
2018-09-06T03:02:51.018Z,20.57
2018-09-06T03:05:18.302Z,20.30
2018-09-06T03:07:45.561Z,21.85
2018-09-06T03:10:12.861Z,20.08
2018-09-06T03:12:40.166Z,19.32
2018-09-06T03:15:07.419Z,22.25
2018-09-06T03:17:34.685Z,22.70
2018-09-06T03:20:01.924Z,21.77
2018-09-06T03:22:29.181Z,22.05
2018-09-06T03:24:56.450Z,21.93
2018-09-06T03:27:23.744Z,21.30
2018-09-06T03:29:50.986Z,20.00
2018-09-06T03:32:18.229Z,21.65
2018-09-06T03:34:45.481Z,23.47
2018-09-06T03:37:12.749Z,21.23
2018-09-06T03:39:41.044Z,21.05
2018-09-06T03:42:08.346Z,22.17
2018-09-06T03:44:35.582Z,21.17
2018-09-06T03:47:02.897Z,20.95
2018-09-06T03:49:30.261Z,22.87
2018-09-06T03:51:57.548Z,21.12
2018-09-06T03:54:24.760Z,21.05
2018-09-06T03:56:52.054Z,20.72
2018-09-06T03:59:19.370Z,20.17
2018-09-06T04:01:46.638Z,22.60
2018-09-06T04:04:13.886Z,22.90
2018-09-06T04:06:41.169Z,21.00
2018-09-06T04:09:08.861Z,20.40
2018-09-06T04:11:36.140Z,22.67
2018-09-06T04:14:03.402Z,22.02
2018-09-06T04:16:30.658Z,20.15
2018-09-06T04:18:57.942Z,20.88
2018-09-06T04:21:25.218Z,22.62
2018-09-06T04:23:52.526Z,20.27
2018-09-06T04:26:19.796Z,22.40
2018-09-06T04:28:47.068Z,21.68
2018-09-06T04:31:14.324Z,22.30
2018-09-06T04:33:41.646Z,22.67
2018-09-06T04:36:08.944Z,19.20
2018-09-06T04:38:36.246Z,21.90
2018-09-06T04:41:03.810Z,20.88
2018-09-06T04:43:31.685Z,20.68
2018-09-06T04:45:58.941Z,19.73
2018-09-06T04:48:26.196Z,20.92
2018-09-06T04:50:53.470Z,20.17
2018-09-06T04:53:20.713Z,20.60
2018-09-06T04:55:48.001Z,21.10
2018-09-06T04:58:15.429Z,19.75
2018-09-06T05:00:42.698Z,20.77
2018-09-06T05:03:09.998Z,21.73
2018-09-06T05:05:37.249Z,20.77
2018-09-06T05:08:04.529Z,20.48
2018-09-06T05:10:31.893Z,18.92
2018-09-06T05:12:59.164Z,21.30
2018-09-06T05:15:26.478Z,21.52
2018-09-06T05:17:53.788Z,21.65
2018-09-06T05:20:21.041Z,20.60
2018-09-06T05:22:48.318Z,21.87
2018-09-06T05:25:15.633Z,19.70
2018-09-06T05:27:42.893Z,22.05
2018-09-06T05:30:10.145Z,20.30
2018-09-06T05:32:37.443Z,21.33
2018-09-06T05:35:04.771Z,18.90
2018-09-06T05:37:32.038Z,20.65
2018-09-06T05:39:59.314Z,21.48
2018-09-06T05:42:26.554Z,20.48
2018-09-06T05:44:53.812Z,20.70
2018-09-06T05:47:21.079Z,21.23
2018-09-06T05:49:48.438Z,20.45
2018-09-06T05:52:15.727Z,19.35
2018-09-06T05:54:42.993Z,18.77
2018-09-06T05:57:10.296Z,20.85
2018-09-06T05:59:37.633Z,21.57
2018-09-06T06:02:04.883Z,20.37
2018-09-06T06:04:32.174Z,20.05
2018-09-06T06:06:59.491Z,20.52
2018-09-06T06:09:26.742Z,20.77
2018-09-06T06:11:54.985Z,20.80
2018-09-06T06:14:22.262Z,20.15
2018-09-06T06:16:49.525Z,20.72
2018-09-06T06:19:16.865Z,22.45
2018-09-06T06:21:44.131Z,21.30
2018-09-06T06:24:11.385Z,19.65
2018-09-06T06:26:38.673Z,22.50
2018-09-06T06:29:05.989Z,23.67
2018-09-06T06:31:33.331Z,21.35
2018-09-06T06:34:00.625Z,22.13
2018-09-06T06:36:27.882Z,22.65
2018-09-06T06:38:55.248Z,22.80
2018-09-06T06:41:22.570Z,22.22
2018-09-06T06:43:49.918Z,23.87
2018-09-06T06:46:17.311Z,22.55
2018-09-06T06:48:44.769Z,25.08
2018-09-06T06:51:12.142Z,24.75
2018-09-06T06:53:39.490Z,23.52
2018-09-06T06:56:06.765Z,25.08
2018-09-06T06:58:34.110Z,25.43
2018-09-06T07:01:01.407Z,26.25
2018-09-06T07:03:28.687Z,25.55
2018-09-06T07:05:56.053Z,25.82
2018-09-06T07:08:23.282Z,27.48
2018-09-06T07:10:50.669Z,28.15
2018-09-06T07:13:18.005Z,28.50
2018-09-06T07:15:45.378Z,28.95
2018-09-06T07:18:12.784Z,28.77
2018-09-06T07:20:40.070Z,30.17
2018-09-06T07:23:07.407Z,29.85
2018-09-06T07:25:34.657Z,29.98
2018-09-06T07:28:01.937Z,30.32
2018-09-06T07:30:29.204Z,30.43
2018-09-06T07:32:56.566Z,31.15
2018-09-06T07:35:23.889Z,28.60
2018-09-06T07:37:51.157Z,29.23
2018-09-06T07:40:18.412Z,30.30
2018-09-06T07:42:45.672Z,29.75
2018-09-06T07:45:13.014Z,30.17
2018-09-06T07:47:40.394Z,29.80
2018-09-06T07:50:07.743Z,31.17
2018-09-06T07:52:35.079Z,29.48
2018-09-06T07:55:02.395Z,28.38
2018-09-06T07:57:30.062Z,29.45
2018-09-06T07:59:57.333Z,30.57
2018-09-06T08:02:24.637Z,31.90
2018-09-06T08:04:51.928Z,28.83
2018-09-06T08:07:19.186Z,30.32
2018-09-06T08:09:46.443Z,31.70
2018-09-06T08:12:14.719Z,29.70
2018-09-06T08:14:42.026Z,28.77
2018-09-06T08:17:09.361Z,32.60
2018-09-06T08:19:36.730Z,31.02
2018-09-06T08:22:03.982Z,34.33
2018-09-06T08:24:31.878Z,32.15
2018-09-06T08:26:59.113Z,29.87
2018-09-06T08:29:26.390Z,34.53
2018-09-06T08:31:53.869Z,31.82
2018-09-06T08:34:21.261Z,29.30
2018-09-06T08:36:48.676Z,30.62
2018-09-06T08:39:15.990Z,30.90
2018-09-06T08:41:43.259Z,29.67
2018-09-06T08:44:10.554Z,32.58
2018-09-06T08:46:38.015Z,29.25
2018-09-06T08:49:05.510Z,31.93
2018-09-06T08:51:32.929Z,31.55
2018-09-06T08:54:00.313Z,34.10
2018-09-06T08:56:27.566Z,29.92
2018-09-06T08:58:54.978Z,30.52
2018-09-06T09:01:27.693Z,33.58
2018-09-06T09:03:55.572Z,30.23
2018-09-06T09:06:22.833Z,31.20
2018-09-06T09:08:50.144Z,30.57
2018-09-06T09:11:17.653Z,28.30
2018-09-06T09:13:44.989Z,31.70
2018-09-06T09:16:12.328Z,30.48
2018-09-06T09:18:39.578Z,30.70
2018-09-06T09:21:07.309Z,34.48
2018-09-06T09:23:34.561Z,32.83
2018-09-06T09:26:01.842Z,31.52
2018-09-06T09:28:29.133Z,31.17
2018-09-06T09:30:56.424Z,32.95
2018-09-06T09:33:23.713Z,31.00
2018-09-06T09:35:51.041Z,30.72
2018-09-06T09:38:18.790Z,31.10
2018-09-06T09:40:46.182Z,34.08
2018-09-06T09:43:13.513Z,32.95
2018-09-06T09:45:40.782Z,32.42
2018-09-06T09:48:08.092Z,31.90
2018-09-06T09:53:01.970Z,29.82
2018-09-06T09:55:29.311Z,31.80
2018-09-06T09:57:56.686Z,30.62
2018-09-06T10:00:29.548Z,29.18
2018-09-06T10:03:02.219Z,31.93
2018-09-06T10:05:34.865Z,32.00
2018-09-06T10:08:02.606Z,33.88
2018-09-06T10:10:30.236Z,30.27
2018-09-06T10:12:57.518Z,32.17
2018-09-06T10:15:24.798Z,30.80
2018-09-06T10:17:52.138Z,30.77
2018-09-06T10:20:19.530Z,33.53
2018-09-06T10:22:46.926Z,40.67
2018-09-06T10:25:14.209Z,32.15
2018-09-06T10:27:41.663Z,33.90
2018-09-06T10:30:08.876Z,31.85
2018-09-06T10:32:36.212Z,31.05
2018-09-06T10:35:03.573Z,31.07
2018-09-06T10:37:30.878Z,31.75
2018-09-06T10:39:58.320Z,32.83
2018-09-06T10:42:25.690Z,31.50
2018-09-06T10:44:53.131Z,31.55
2018-09-06T10:47:20.401Z,32.23
2018-09-06T10:49:48.105Z,31.07
2018-09-06T10:52:15.734Z,33.75
2018-09-06T10:54:43.013Z,33.88
2018-09-06T10:57:10.279Z,33.25
2018-09-06T10:59:37.605Z,30.97
2018-09-06T11:02:05.510Z,31.57
2018-09-06T11:04:32.949Z,31.40
2018-09-06T11:07:00.309Z,30.82
2018-09-06T11:09:27.686Z,31.62
2018-09-06T11:11:55.037Z,33.92
2018-09-06T11:14:22.453Z,47.15
2018-09-06T11:16:49.745Z,35.15
2018-09-06T11:19:17.009Z,34.38
2018-09-06T11:21:44.444Z,38.13
2018-09-06T11:24:11.587Z,36.35
2018-09-06T11:26:38.849Z,35.17
2018-09-06T11:29:06.121Z,32.88
2018-09-06T11:31:33.447Z,32.17
2018-09-06T11:34:00.690Z,33.78
2018-09-06T11:36:28.073Z,32.28
2018-09-06T11:38:55.398Z,32.40
2018-09-06T11:41:22.742Z,32.67
2018-09-06T11:43:50.030Z,36.28
2018-09-06T11:46:17.394Z,31.73
2018-09-06T11:48:44.685Z,30.55
2018-09-06T11:51:11.960Z,28.38
2018-09-06T11:53:39.346Z,33.00
2018-09-06T11:56:06.999Z,30.45
2018-09-06T11:58:34.280Z,32.40
2018-09-06T12:01:01.590Z,31.97
2018-09-06T12:03:28.997Z,31.60
2018-09-06T12:05:56.322Z,32.55
2018-09-06T12:08:23.627Z,31.15
2018-09-06T12:10:50.935Z,28.95
2018-09-06T12:13:18.307Z,29.85
2018-09-06T12:15:45.621Z,30.32
2018-09-06T12:18:12.901Z,31.52
2018-09-06T12:20:40.194Z,33.25
2018-09-06T12:23:07.509Z,33.23
2018-09-06T12:25:34.827Z,34.20
2018-09-06T12:28:02.153Z,32.53
2018-09-06T12:30:29.514Z,31.45
2018-09-06T12:32:56.757Z,36.15
2018-09-06T12:35:24.065Z,34.20
2018-09-06T12:37:51.353Z,31.87
2018-09-06T12:40:18.678Z,32.67
2018-09-06T12:42:45.978Z,34.88
2018-09-06T12:45:13.289Z,35.08
2018-09-06T12:47:40.854Z,34.60
2018-09-06T12:50:08.148Z,39.80
2018-09-06T12:52:35.494Z,36.90
2018-09-06T12:55:02.849Z,33.80
2018-09-06T12:57:30.132Z,33.45
2018-09-06T12:59:57.421Z,37.35
2018-09-06T13:02:24.701Z,37.60
2018-09-06T13:04:52.003Z,35.70
2018-09-06T13:07:19.289Z,36.20
2018-09-06T13:09:46.598Z,36.58
2018-09-06T13:12:13.914Z,35.88
2018-09-06T13:14:41.180Z,34.78
2018-09-06T13:17:08.526Z,36.10
2018-09-06T13:19:35.894Z,36.25
2018-09-06T13:22:03.175Z,35.05
2018-09-06T13:24:30.464Z,37.05
2018-09-06T13:26:57.873Z,35.10
2018-09-06T13:29:25.215Z,38.25
2018-09-06T13:31:52.524Z,36.65
2018-09-06T13:34:19.870Z,40.25
2018-09-06T13:36:47.251Z,39.73
2018-09-06T13:39:14.659Z,37.65
2018-09-06T13:41:42.014Z,39.13
2018-09-06T13:44:09.317Z,36.03
2018-09-06T13:46:36.699Z,35.55
2018-09-06T13:49:04.014Z,33.05
2018-09-06T13:51:31.319Z,32.73
2018-09-06T13:53:58.592Z,34.43
2018-09-06T13:56:25.943Z,32.98
2018-09-06T13:58:53.294Z,34.55
2018-09-06T14:01:20.668Z,31.87
2018-09-06T14:03:48.029Z,32.95
2018-09-06T14:06:15.430Z,34.38
2018-09-06T14:08:42.729Z,32.23
2018-09-06T14:11:10.026Z,34.03
2018-09-06T14:13:37.338Z,32.58
2018-09-06T14:16:04.666Z,34.75
2018-09-06T14:18:32.093Z,34.33
2018-09-06T14:20:59.425Z,35.35
2018-09-06T14:23:26.762Z,35.73
2018-09-06T14:25:54.062Z,33.05
2018-09-06T14:28:21.461Z,28.42
2018-09-06T14:30:48.782Z,29.82
2018-09-06T14:33:16.107Z,24.92
2018-09-06T14:35:43.556Z,24.85
2018-09-06T14:38:11.038Z,23.52
2018-09-06T14:40:38.336Z,21.37
2018-09-06T14:43:05.697Z,23.60
2018-09-06T14:45:33.162Z,24.60
2018-09-06T14:48:00.502Z,25.08
2018-09-06T14:50:27.841Z,24.67
2018-09-06T14:52:55.269Z,23.60
2018-09-06T14:55:22.599Z,27.95
2018-09-06T14:57:49.934Z,23.30
2018-09-06T15:00:17.233Z,23.62
2018-09-06T15:02:44.578Z,22.60
2018-09-06T15:05:11.946Z,23.18
2018-09-06T15:07:39.286Z,22.93
2018-09-06T15:10:06.845Z,23.40
2018-09-06T15:12:34.204Z,22.70
2018-09-06T15:15:01.527Z,24.98
2018-09-06T15:17:28.811Z,22.27
2018-09-06T15:19:56.103Z,23.52
2018-09-06T15:22:23.416Z,23.15
2018-09-06T15:24:50.745Z,24.52
2018-09-06T15:27:18.046Z,23.83
2018-09-06T15:29:45.349Z,22.10
2018-09-06T15:32:12.668Z,26.50
2018-09-06T15:34:40.049Z,24.75
2018-09-06T15:37:07.359Z,22.90
2018-09-06T15:39:34.648Z,25.20
2018-09-06T15:42:02.034Z,22.40
2018-09-06T15:44:29.471Z,23.92
2018-09-06T15:46:56.885Z,23.65
2018-09-06T15:49:24.322Z,23.55
2018-09-06T15:51:51.575Z,23.70
2018-09-06T15:54:18.870Z,21.45
2018-09-06T15:56:46.215Z,21.07
2018-09-06T15:59:13.535Z,21.70
2018-09-06T16:01:40.905Z,23.47
2018-09-06T16:04:08.231Z,21.80
2018-09-06T16:06:35.519Z,22.60
2018-09-06T16:09:02.977Z,24.80
2018-09-06T16:11:30.380Z,24.95
2018-09-06T16:13:57.747Z,21.25
2018-09-06T16:16:25.062Z,22.80
2018-09-06T16:18:52.334Z,23.73
2018-09-06T16:21:19.694Z,22.40
2018-09-06T16:23:47.024Z,22.45
2018-09-06T16:26:14.339Z,21.93
2018-09-06T16:28:41.660Z,20.65
2018-09-06T16:31:09.346Z,22.02
2018-09-06T16:33:36.680Z,22.93
2018-09-06T16:36:04.181Z,21.95
2018-09-06T16:38:31.494Z,22.67
2018-09-06T16:40:58.910Z,22.90
2018-09-06T16:43:26.261Z,21.60
2018-09-06T16:45:53.665Z,21.52
2018-09-06T16:48:21.028Z,21.77
2018-09-06T16:50:48.370Z,20.95
2018-09-06T16:53:15.740Z,20.95
2018-09-06T16:55:43.107Z,21.00
2018-09-06T16:58:10.456Z,22.55
2018-09-06T17:00:37.866Z,21.23
2018-09-06T17:03:05.245Z,20.92
2018-09-06T17:05:32.557Z,22.58
2018-09-06T17:07:59.818Z,22.70
2018-09-06T17:10:27.199Z,21.45
2018-09-06T17:12:54.561Z,21.37
2018-09-06T17:15:21.913Z,21.73
2018-09-06T17:17:49.264Z,20.25
2018-09-06T17:20:17.931Z,22.10
2018-09-06T17:22:45.258Z,23.12
2018-09-06T17:25:12.654Z,20.97
2018-09-06T17:27:40.121Z,20.95
2018-09-06T17:30:07.502Z,22.37
2018-09-06T17:32:34.984Z,21.37
2018-09-06T17:35:02.330Z,21.10
2018-09-06T17:37:29.709Z,20.30
2018-09-06T17:39:57.152Z,20.10
2018-09-06T17:42:24.571Z,19.75
2018-09-06T17:44:52.047Z,19.73
2018-09-06T17:47:19.421Z,19.12
2018-09-06T17:49:46.800Z,20.12
2018-09-06T17:52:14.145Z,19.37
2018-09-06T17:54:41.479Z,19.20
2018-09-06T17:57:08.834Z,19.23
2018-09-06T17:59:36.156Z,19.50
2018-09-06T18:02:03.616Z,19.65
2018-09-06T18:04:31.066Z,20.43
2018-09-06T18:06:58.436Z,20.85
2018-09-06T18:09:25.791Z,23.80
2018-09-06T18:11:53.178Z,22.52
2018-09-06T18:14:20.591Z,25.95
2018-09-06T18:16:48.025Z,28.98
2018-09-06T18:19:15.412Z,29.65
2018-09-06T18:21:42.794Z,29.23
2018-09-06T18:24:10.183Z,30.95
2018-09-06T18:26:37.631Z,32.03
2018-09-06T18:29:05.084Z,33.02
2018-09-06T18:31:32.478Z,33.30
2018-09-06T18:33:59.909Z,34.10
2018-09-06T18:36:27.340Z,39.80
2018-09-06T18:38:54.735Z,37.60
2018-09-06T18:41:22.126Z,36.73
2018-09-06T18:43:49.744Z,38.08
2018-09-06T18:46:16.999Z,36.05
2018-09-06T18:48:44.442Z,52.50
2018-09-06T18:51:12.128Z,40.08
2018-09-06T18:53:39.860Z,37.67
2018-09-06T18:56:07.277Z,37.05
2018-09-06T18:58:34.708Z,38.83
2018-09-06T19:01:02.150Z,37.60
2018-09-06T19:03:29.530Z,35.33
2018-09-06T19:05:57.990Z,37.03
2018-09-06T19:08:25.339Z,37.38
2018-09-06T19:10:52.871Z,33.15
2018-09-06T19:13:20.304Z,37.55
2018-09-06T19:15:48.419Z,36.90
2018-09-06T19:18:16.880Z,37.40
2018-09-06T19:20:44.394Z,36.17
2018-09-06T19:23:11.858Z,36.60
2018-09-06T19:25:39.214Z,36.80
2018-09-06T19:28:06.628Z,35.43
2018-09-06T19:30:34.098Z,35.23
2018-09-06T19:33:01.500Z,39.08
2018-09-06T19:35:28.977Z,36.65
2018-09-06T19:37:56.317Z,38.23
2018-09-06T19:40:23.808Z,39.30
2018-09-06T19:42:51.190Z,36.70
2018-09-06T19:45:18.542Z,38.05
2018-09-06T19:47:45.949Z,43.40
2018-09-06T19:50:13.311Z,46.13
2018-09-06T19:52:40.706Z,40.40
2018-09-06T19:55:08.151Z,43.45
2018-09-06T19:57:35.927Z,42.70
2018-09-06T20:00:03.611Z,46.73
2018-09-06T20:02:31.185Z,42.62
2018-09-06T20:04:58.638Z,45.05
2018-09-06T20:07:26.571Z,45.05
2018-09-06T20:09:54.104Z,44.73
2018-09-06T20:12:21.538Z,49.50
2018-09-06T20:14:48.965Z,50.15
2018-09-06T20:17:16.322Z,43.83
2018-09-06T20:19:43.881Z,45.63
2018-09-06T20:22:11.393Z,46.80
2018-09-06T20:24:38.774Z,49.25
2018-09-06T20:27:06.185Z,47.23
2018-09-06T20:29:33.512Z,49.08
2018-09-06T20:32:00.873Z,49.63
2018-09-06T20:34:28.270Z,51.08
2018-09-06T20:36:55.823Z,51.42
2018-09-06T20:39:24.201Z,46.10
2018-09-06T20:41:51.642Z,51.35
2018-09-06T20:44:18.972Z,51.40
2018-09-06T20:46:46.320Z,45.70
2018-09-06T20:49:13.649Z,51.37
2018-09-06T20:51:40.964Z,54.98
2018-09-06T20:54:08.345Z,51.55
2018-09-06T20:56:35.792Z,53.05
2018-09-06T20:59:03.165Z,52.62
2018-09-06T21:01:30.521Z,50.65
2018-09-06T21:03:57.843Z,51.98
2018-09-06T21:06:25.207Z,53.17
2018-09-06T21:08:52.653Z,55.50
2018-09-06T21:11:19.965Z,54.67
2018-09-06T21:13:47.308Z,58.58
2018-09-06T21:16:14.614Z,56.40
2018-09-06T21:18:42.025Z,57.58
2018-09-06T21:21:09.433Z,51.80
2018-09-06T21:23:36.769Z,60.17
2018-09-06T21:26:04.146Z,56.45
2018-09-06T21:28:31.461Z,56.55
2018-09-06T21:30:58.806Z,57.15
2018-09-06T21:33:26.117Z,60.95
2018-09-06T21:35:53.434Z,63.17
2018-09-06T21:38:20.796Z,58.63
2018-09-06T21:40:48.087Z,62.33
2018-09-06T21:43:15.449Z,62.13
2018-09-06T21:45:42.783Z,61.90
2018-09-06T21:48:10.194Z,61.90
2018-09-06T21:50:37.522Z,67.05
2018-09-06T21:53:04.875Z,63.83
2018-09-06T21:55:32.173Z,64.30
2018-09-06T21:57:59.586Z,61.80
2018-09-06T22:00:27.208Z,61.92
2018-09-06T22:02:59.901Z,63.78
2018-09-06T22:05:28.082Z,67.30
2018-09-06T22:07:55.410Z,66.30
2018-09-06T22:10:23.301Z,71.82
2018-09-06T22:12:51.201Z,68.12
2018-09-06T22:15:18.749Z,75.47
2018-09-06T22:17:46.104Z,73.60
2018-09-06T22:20:13.478Z,71.37
2018-09-06T22:22:40.831Z,71.97
2018-09-06T22:25:08.117Z,74.67
2018-09-06T22:27:35.496Z,75.42
2018-09-06T22:30:02.874Z,77.95
2018-09-06T22:32:30.145Z,76.50
2018-09-06T22:34:57.573Z,77.20
2018-09-06T22:37:24.873Z,73.95
2018-09-06T22:39:52.209Z,81.85
2018-09-06T22:42:19.505Z,79.87
2018-09-06T22:44:46.778Z,78.30
2018-09-06T22:47:14.054Z,74.80
2018-09-06T22:49:41.409Z,77.92
2018-09-06T22:52:08.835Z,75.08
2018-09-06T22:54:36.120Z,73.95
2018-09-06T22:57:03.405Z,79.22
2018-09-06T22:59:30.691Z,75.97
2018-09-06T23:01:58.938Z,69.27
2018-09-06T23:04:26.380Z,69.67
2018-09-06T23:06:53.683Z,71.05
2018-09-06T23:09:21.070Z,64.65
2018-09-06T23:11:48.407Z,58.08
2018-09-06T23:14:15.737Z,59.50
2018-09-06T23:16:43.103Z,57.10
2018-09-06T23:19:10.469Z,54.20
2018-09-06T23:21:37.838Z,52.62
2018-09-06T23:24:05.194Z,50.60
2018-09-06T23:26:32.507Z,49.23
2018-09-06T23:28:59.892Z,47.67
2018-09-06T23:31:27.253Z,50.43
2018-09-06T23:33:54.492Z,47.62
2018-09-06T23:36:21.859Z,49.83
2018-09-06T23:38:49.098Z,48.23
2018-09-06T23:41:16.450Z,47.27
2018-09-06T23:43:43.834Z,48.10
2018-09-06T23:46:11.177Z,46.25
2018-09-06T23:48:38.434Z,44.70
2018-09-06T23:51:05.771Z,43.95
2018-09-06T23:53:33.168Z,46.68
2018-09-06T23:56:00.409Z,46.20
2018-09-06T23:58:27.738Z,48.00
